»·PEaware :: N7GL KFAT-KRNO

N7GL :: KFAT-KRNO

FLIGHT INFORMATION

Flight Status: Arrived
Operator: Privately registered:
United States
More flights under this callsign
Pilot: Georg L. (13308)
Aircraft: BEECH AIRCRAFT SUPER KING AIR 350
(B350)
More flights by this aircraft type
Origin: KFAT Fresno Yosemite Intl
United States
Destination: KRNO Reno/Tahoe Intl
United States
More flights between these airports :: More routes between these airports
Route: HYP TILTS TARVR1
File this flight plan on PilotEdge
Remarks:
Altitude:
(Current/Filed)
20,000ft
Speed:
(Current/Filed)
298kts
Departed: 19-Oct-20 07:58 AM
Arrived: 19-Oct-20 08:48 AM
Distance/Time
Traveled:
164nm/0:50
Distance/Time
To Go:
Arrived

Flight Plot

Page will automatically refresh every two minutes.

Flight plan parsing failed; only flown route is shown


Map Options




Map Legend


Flown Route
Filed Route
Departure Airport
Arrival Airport
Navaid (VOR, NDB)
Fix

Horizontal Profiles

Position Reports

Time Latitude Longitude Heading Altitude Ground
Speed
19-Oct-20 07:35 36.776499 -119.726423 306 334ft 0kts
19-Oct-20 07:36 36.776499 -119.726423 306 334ft 0kts
19-Oct-20 07:37 36.776499 -119.726423 306 334ft 0kts
19-Oct-20 07:38 36.776499 -119.726423 306 334ft 0kts
19-Oct-20 07:39 36.776499 -119.726423 306 334ft 0kts
19-Oct-20 07:40 36.776499 -119.726423 306 334ft 0kts
19-Oct-20 07:41 36.776499 -119.726423 306 334ft 0kts
19-Oct-20 07:42 36.776499 -119.726423 306 334ft 0kts
19-Oct-20 07:43 36.776499 -119.726423 306 334ft 0kts
19-Oct-20 07:44 36.776499 -119.726423 306 334ft 0kts
19-Oct-20 07:45 36.776499 -119.726423 306 334ft 0kts
19-Oct-20 07:46 36.776499 -119.726423 306 334ft 0kts
19-Oct-20 07:47 36.776499 -119.726423 306 334ft 0kts
19-Oct-20 07:48 36.776499 -119.726423 306 334ft 0kts
19-Oct-20 07:49 36.776499 -119.726423 306 334ft 0kts
19-Oct-20 07:50 36.776499 -119.726423 306 334ft 0kts
19-Oct-20 07:50 36.776499 -119.726423 306 334ft 0kts
19-Oct-20 07:52 36.776785 -119.726609 2 334ft 3kts
19-Oct-20 07:52 36.777472 -119.726056 30 334ft 8kts
19-Oct-20 07:54 36.774630 -119.720182 126 334ft 24kts
19-Oct-20 07:55 36.771385 -119.714497 125 334ft 24kts
19-Oct-20 07:55 36.769957 -119.711070 34 334ft 0kts
19-Oct-20 07:57 36.769959 -119.711068 35 334ft 0kts
19-Oct-20 07:57 36.773384 -119.715482 305 335ft 101kts
19-Oct-20 07:59 36.800483 -119.764902 304 2249ft 175kts
19-Oct-20 07:59 36.822878 -119.807221 304 4213ft 179kts
19-Oct-20 08:00 36.851664 -119.858526 311 6353ft 183kts
19-Oct-20 08:01 36.884900 -119.906826 311 8476ft 184kts
19-Oct-20 08:02 36.917860 -119.955106 310 10534ft 181kts
19-Oct-20 08:03 36.950077 -120.002399 309 12433ft 178kts
19-Oct-20 08:04 36.982264 -120.049722 309 14043ft 181kts
19-Oct-20 08:05 37.014973 -120.097882 309 15543ft 183kts
19-Oct-20 08:06 37.047872 -120.146392 309 17007ft 183kts
19-Oct-20 08:07 37.080843 -120.195091 309 18457ft 184kts
19-Oct-20 08:08 37.113915 -120.244072 309 19942ft 184kts
19-Oct-20 08:09 37.150723 -120.298539 310 20084ft 226kts
19-Oct-20 08:10 37.194119 -120.362156 315 20067ft 252kts
19-Oct-20 08:11 37.261843 -120.374620 22 20073ft 274kts
19-Oct-20 08:12 37.331275 -120.332544 23 20064ft 280kts
19-Oct-20 08:13 37.401585 -120.289621 22 20062ft 282kts
19-Oct-20 08:14 37.472338 -120.246576 22 20063ft 284kts
19-Oct-20 08:15 37.543341 -120.203316 22 20083ft 284kts
19-Oct-20 08:16 37.614426 -120.159922 22 20113ft 284kts
19-Oct-20 08:17 37.685268 -120.116575 22 20143ft 284kts
19-Oct-20 08:18 37.756227 -120.073068 22 20173ft 284kts
19-Oct-20 08:19 37.827203 -120.029459 22 20217ft 283kts
19-Oct-20 08:20 37.901284 -120.001379 6 20255ft 278kts
19-Oct-20 08:21 37.977592 -119.983872 7 20264ft 280kts
19-Oct-20 08:22 38.053347 -119.965014 7 20274ft 279kts
19-Oct-20 08:23 38.129546 -119.945782 7 20330ft 279kts
19-Oct-20 08:24 38.205862 -119.926469 7 20329ft 281kts
19-Oct-20 08:25 38.282185 -119.907099 7 20337ft 281kts
19-Oct-20 08:26 38.358600 -119.887664 7 20345ft 281kts
19-Oct-20 08:27 38.435273 -119.868122 7 20349ft 281kts
19-Oct-20 08:28 38.511627 -119.848630 7 20350ft 281kts
19-Oct-20 08:29 38.590037 -119.828618 8 19605ft 303kts
19-Oct-20 08:30 38.675040 -119.806704 8 18170ft 319kts
19-Oct-20 08:31 38.762542 -119.784099 8 16687ft 323kts
19-Oct-20 08:32 38.845558 -119.771256 357 16057ft 270kts
19-Oct-20 08:33 38.916760 -119.770567 356 16052ft 246kts
19-Oct-20 08:34 38.983564 -119.770428 356 16024ft 236kts
19-Oct-20 08:35 39.049851 -119.755884 12 15253ft 263kts
19-Oct-20 08:36 39.122673 -119.728644 12 13813ft 279kts
19-Oct-20 08:37 39.197774 -119.701149 12 12340ft 278kts
19-Oct-20 08:38 39.271121 -119.674962 12 10834ft 271kts
19-Oct-20 08:39 39.343734 -119.651002 12 9998ft 267kts
19-Oct-20 08:40 39.415225 -119.627820 12 9998ft 264kts
19-Oct-20 08:41 39.486652 -119.608023 358 9953ft 263kts
19-Oct-20 08:42 39.559318 -119.632454 338 9060ft 286kts
19-Oct-20 08:43 39.611904 -119.699358 271 7616ft 267kts
19-Oct-20 08:44 39.587107 -119.771911 186 6902ft 224kts
19-Oct-20 08:45 39.536762 -119.766657 180 5244ft 138kts
19-Oct-20 08:46 39.504445 -119.766773 179 4409ft 52kts
19-Oct-20 08:47 39.502704 -119.765693 185 4407ft 4kts
19-Oct-20 08:48 39.500839 -119.764741 86 4406ft 5kts
19-Oct-20 08:49 39.501546 -119.764942 189 4406ft 3kts
19-Oct-20 08:50 39.501492 -119.764818 89 4406ft 0kts
19-Oct-20 08:51 39.501492 -119.764818 89 4406ft 0kts
19-Oct-20 08:52 39.501492 -119.764818 89 4406ft 0kts

Navigation Log

Ident Type
Flight plan parsing failed, navigation log unavailable